Latest Weather Observations for Southern Cross Airport

IDW60801

Issued at 7:32 am WST Saturday 23 May 2015 (issued every 30 minutes, with the page automatically refreshed every 10 minutes)

About weather observations | Map of weather stations | Latest weather observations for WA | Other Formats
Station Details ID: 012320 Name: SOUTHERN CROSS AIRFIELD Lat: -31.24 Lon: 119.36 Height: 347.4 m
Data from the previous 72 hours. | See also: Recent months at Southern Cross Airport
Date/Time
WST
Temp
°C
App
Temp
°C
Dew
Point
Rel
Hum
%
Delta-T
°C
Wind Press
QNH
hPa
Press
MSL
hPa
Rain
since 9 am
mm
Dir
 
Spd
km/h
Gust
km/h
Spd
kts
Gust
kts
23/07:30am 7.9 7.0 6.2 89 0.8 CALM 0 0 0 0 1019.1 1018.7 0.0
23/07:00am 7.1 6.0 5.3 88 0.8 CALM 0 0 0 0 1018.8 1018.4 0.0
23/06:30am 6.9 5.8 4.9 87 0.9 CALM 0 0 0 0 1018.7 1018.3 0.0
23/06:00am 7.8 5.7 5.9 88 0.9 SE 6 7 3 4 1018.5 1018.0 0.0
23/05:30am 7.4 5.2 5.4 87 0.9 SE 6 6 3 3 1018.3 1017.8 0.0
23/05:00am 8.5 7.2 5.8 83 1.2 ENE 2 6 1 3 1018.1 1017.6 0.0
23/04:30am 9.1 6.9 5.5 78 1.7 ENE 6 7 3 4 1017.9 1017.4 0.0
23/04:00am 9.2 6.7 4.8 74 2.0 ENE 7 7 4 4 1018.0 1017.5 0.0
23/03:30am 9.7 7.2 4.7 71 2.3 ENE 7 7 4 4 1018.0 1017.5 0.0
23/03:00am 10.7 8.8 4.8 67 2.7 NE 4 9 2 5 1018.0 1017.5 0.0
23/02:30am 11.2 8.9 4.9 65 2.9 NNE 6 9 3 5 1018.0 1017.5 0.0
23/02:00am 11.7 8.5 4.9 63 3.2 NNE 11 15 6 8 1018.0 1017.5 0.0
23/01:30am 12.1 7.7 5.0 62 3.3 NE 17 22 9 12 1017.8 1017.3 0.0
23/01:00am 12.5 9.0 5.4 62 3.4 NE 13 19 7 10 1018.2 1017.7 0.0
23/12:30am 12.9 9.1 5.6 61 3.5 NNE 15 19 8 10 1018.3 1017.8 0.0
23/12:00am 13.1 9.6 5.3 59 3.7 NE 13 20 7 11 1018.8 1018.4 0.0
 
Date/Time
WST
Temp
°C
App
Temp
°C
Dew
Point
Rel
Hum
%
Delta-T
°C
Wind Press
QNH
hPa
Press
MSL
hPa
Rain
since 9 am
mm
Dir
 
Spd
km/h
Gust
km/h
Spd
kts
Gust
kts
22/11:30pm 13.5 9.2 5.4 58 3.9 NE 17 20 9 11 1019.1 1018.7 0.0
22/11:00pm 13.1 9.3 5.8 61 3.5 NE 15 19 8 10 1019.0 1018.6 0.0
22/10:30pm 13.1 8.9 5.8 61 3.5 ENE 17 22 9 12 1019.0 1018.6 0.0
22/10:00pm 12.8 9.5 6.4 65 3.1 NE 13 15 7 8 1019.4 1019.0 0.0
22/09:30pm 13.1 10.2 6.7 65 3.1 NNE 11 13 6 7 1019.6 1019.2 0.0
22/09:00pm 13.4 9.3 6.0 61 3.6 ENE 17 22 9 12 1019.4 1019.0 0.0
22/08:30pm 14.0 9.9 6.1 59 3.8 NE 17 22 9 12 1019.2 1018.8 0.0
22/08:00pm 14.4 10.0 6.5 59 3.9 ENE 19 22 10 12 1019.1 1018.7 0.0
22/07:30pm 14.5 10.5 6.6 59 3.9 ENE 17 20 9 11 1018.9 1018.5 0.0
22/07:00pm 15.1 11.0 6.4 56 4.3 ENE 17 19 9 10 1018.8 1018.4 0.0
22/06:30pm 16.0 12.3 6.2 52 4.8 ENE 15 20 8 11 1018.6 1018.2 0.0
22/06:00pm 15.9 12.6 6.6 54 4.6 ENE 13 15 7 8 1018.4 1017.9 0.0
22/05:30pm 16.6 13.4 7.0 53 4.8 ENE 13 13 7 7 1018.2 1017.7 0.0
22/05:00pm 18.3 15.5 7.1 48 5.7 NE 11 13 6 7 1018.2 1017.7 0.0
22/04:30pm 19.9 16.5 5.9 40 7.1 NNE 13 17 7 9 1018.0 1017.5 0.0
22/04:00pm 20.6 15.9 5.0 36 7.8 NE 19 28 10 15 1018.0 1017.5 0.0
22/03:30pm 20.7 15.8 5.1 36 7.8 NE 20 28 11 15 1018.1 1017.6 0.0
22/03:00pm 20.8 16.6 5.6 37 7.7 NE 17 24 9 13 1018.2 1017.7 0.0
22/02:30pm 20.2 15.0 5.4 38 7.4 NE 22 32 12 17 1018.4 1017.9 0.0
22/02:00pm 20.0 14.7 6.7 42 6.8 NE 24 30 13 16 1018.6 1018.2 0.0
22/01:30pm 19.3 15.0 6.8 44 6.4 NE 19 28 10 15 1019.0 1018.6 0.0
22/01:00pm 18.6 14.1 6.8 46 6.0 NE 20 26 11 14 1019.5 1019.1 0.0
22/12:30pm 17.0 12.3 5.9 48 5.5 NNE 20 28 11 15 1019.9 1019.5 0.0
22/12:00pm 16.6 11.5 6.1 50 5.2 NNE 22 30 12 16 1020.8 1020.3 0.0
22/11:30am 16.1 11.9 5.7 50 5.1 NNE 17 24 9 13 1021.4 1021.0 0.0
22/11:00am 14.5 9.6 5.0 53 4.5 NNE 20 28 11 15 1022.0 1021.6 0.0
22/10:30am 14.4 9.3 6.0 57 4.1 NNE 22 28 12 15 1022.3 1021.9 0.0
22/10:00am 13.9 9.4 7.0 63 3.4 NE 20 26 11 14 1022.7 1022.3 0.0
22/09:30am 12.7 8.2 7.0 68 2.8 NE 20 26 11 14 1023.1 1022.7 0.0
22/09:00am 11.5 8.1 6.0 69 2.6 E 13 22 7 12 1023.3 1022.9 3.8
22/08:30am 10.1 5.9 5.9 75 2.0 ENE 17 26 9 14 1023.3 1022.9 3.8
22/08:00am 9.5 6.0 5.5 76 1.8 ENE 13 24 7 13 1023.6 1023.3 3.8
22/07:30am 9.3 5.1 5.5 77 1.8 ENE 17 22 9 12 1023.5 1023.2 3.8
22/07:00am 9.0 6.3 5.7 80 1.5 ENE 9 13 5 7 1024.0 1023.6 3.8
22/06:30am 8.3 4.1 5.8 84 1.2 ENE 17 20 9 11 1023.8 1023.4 3.8
22/06:00am 8.7 6.0 5.8 82 1.3 SE 9 17 5 9 1024.0 1023.6 3.0
22/05:30am 8.0 3.4 5.8 86 1.0 E 19 28 10 15 1023.4 1023.1 3.0
22/05:00am 8.5 6.1 5.3 80 1.5 W 7 9 4 5 1024.5 1024.1 2.0
22/04:30am 8.5 4.1 4.7 77 1.7 ENE 17 20 9 11 1023.6 1023.3 1.0
22/04:00am 8.6 5.3 4.8 77 1.7 ENE 11 13 6 7 1023.6 1023.3 0.6
22/03:30am 9.7 7.1 3.0 63 2.9 NNE 6 9 3 5 1024.0 1023.6 0.0
22/03:00am 9.8 6.1 2.2 59 3.3 E 11 13 6 7 1024.1 1023.7 0.0
22/02:30am 9.9 7.0 2.5 60 3.2 ESE 7 9 4 5 1024.2 1023.8 0.0
22/02:00am 9.8 6.1 2.2 59 3.3 ESE 11 15 6 8 1024.2 1023.8 0.0
22/01:30am 9.8 6.5 2.2 59 3.3 ESE 9 13 5 7 1024.5 1024.1 0.0
22/01:00am 10.1 7.3 2.2 58 3.4 SE 6 7 3 4 1024.6 1024.2 0.0
22/12:30am 10.1 8.1 2.2 58 3.4 E 2 6 1 3 1024.7 1024.3 0.0
22/12:00am 10.8 6.6 1.6 53 3.9 ENE 13 17 7 9 1024.5 1024.1 0.0
 
Date/Time
WST
Temp
°C
App
Temp
°C
Dew
Point
Rel
Hum
%
Delta-T
°C
Wind Press
QNH
hPa
Press
MSL
hPa
Rain
since 9 am
mm
Dir
 
Spd
km/h
Gust
km/h
Spd
kts
Gust
kts
21/11:30pm 11.2 6.3 1.7 52 4.1 ENE 17 24 9 13 1024.8 1024.4 0.0
21/11:00pm 10.8 6.6 1.9 54 3.8 E 13 20 7 11 1024.9 1024.5 0.0
21/10:30pm 11.3 5.9 1.5 51 4.2 E 19 26 10 14 1024.9 1024.5 0.0
21/10:00pm 10.8 5.8 1.6 53 3.9 E 17 24 9 13 1025.0 1024.6 0.0
21/09:30pm 10.9 6.2 1.2 51 4.1 ENE 15 20 8 11 1025.4 1025.0 0.0
21/09:00pm 10.9 5.9 1.2 51 4.1 ENE 17 24 9 13 1025.4 1025.0 0.0
21/08:30pm 11.1 6.4 1.1 50 4.3 ENE 15 20 8 11 1025.4 1025.0 0.0
21/08:00pm 11.8 6.7 0.9 47 4.6 ENE 17 22 9 12 1025.3 1024.9 0.0
21/07:30pm 12.3 6.9 1.0 46 4.9 ENE 19 24 10 13 1025.2 1024.8 0.0
21/07:00pm 13.1 7.7 1.1 44 5.2 E 19 24 10 13 1025.1 1024.7 0.0
21/06:30pm 13.5 8.1 1.2 43 5.4 E 19 24 10 13 1024.9 1024.5 0.0
21/06:00pm 13.9 9.7 1.5 43 5.4 E 13 19 7 10 1024.9 1024.5 0.0
21/05:30pm 14.3 10.1 1.6 42 5.6 E 13 17 7 9 1024.7 1024.3 0.0
21/05:00pm 15.7 10.1 1.4 38 6.4 ENE 20 24 11 13 1024.5 1024.1 0.0
21/04:30pm 16.5 10.9 1.4 36 6.8 ENE 20 28 11 15 1024.4 1024.0 0.0
21/04:00pm 16.8 10.8 1.3 35 6.9 ENE 22 28 12 15 1024.4 1024.0 0.0
21/03:30pm 17.4 11.9 1.8 35 7.1 ENE 20 30 11 16 1024.5 1024.1 0.0
21/03:00pm 17.4 11.5 1.8 35 7.1 ENE 22 28 12 15 1024.4 1024.0 0.0
21/02:30pm 17.5 11.7 2.3 36 7.0 ENE 22 30 12 16 1024.5 1024.1 0.0
21/02:00pm 17.1 11.2 1.9 36 6.9 ENE 22 32 12 17 1024.8 1024.4 0.0
21/01:30pm 17.1 11.7 2.3 37 6.8 ENE 20 26 11 14 1025.2 1024.8 0.0
21/01:00pm 16.5 10.4 2.5 39 6.4 ENE 24 33 13 18 1025.7 1025.3 0.0
21/12:30pm 16.1 10.1 3.2 42 6.0 ENE 24 35 13 19 1026.3 1026.0 0.0
21/12:00pm 15.4 9.1 3.5 45 5.5 ENE 26 37 14 20 1027.1 1026.7 0.0
21/11:30am 15.3 8.6 3.8 46 5.4 ENE 28 41 15 22 1027.6 1027.2 0.0
21/11:00am 14.6 8.3 3.7 48 5.0 NE 26 35 14 19 1028.1 1027.7 0.0
21/10:30am 13.8 5.8 3.6 50 4.7 NE 35 44 19 24 1028.4 1028.1 0.0
21/10:00am 13.6 6.1 3.7 51 4.5 NE 32 46 17 25 1028.9 1028.6 0.0
21/09:30am 12.5 5.5 4.2 57 3.8 NE 30 39 16 21 1029.3 1029.0 0.0
21/09:00am 11.7 5.2 4.7 62 3.2 ENE 28 37 15 20 1029.6 1029.3 0.0
21/08:30am 10.0 5.9 4.2 67 2.6 E 15 24 8 13 1029.8 1029.4 0.0
21/08:00am 7.9 2.8 2.8 70 2.2 E 19 22 10 12 1029.8 1029.4 0.0
21/07:30am 6.5 1.2 2.0 73 1.9 E 19 24 10 13 1029.3 1029.0 0.0
21/07:00am 5.6 0.6 1.3 74 1.7 E 17 20 9 11 1029.3 1029.0 0.0
21/06:30am 5.3 1.0 1.2 75 1.6 E 13 17 7 9 1029.0 1028.7 0.0
21/06:00am 5.3 1.4 1.1 74 1.7 E 11 13 6 7 1028.8 1028.5 0.0
21/05:30am 5.1 0.8 1.0 75 1.6 E 13 17 7 9 1028.6 1028.3 0.0
21/05:00am 5.2 1.7 1.1 75 1.6 E 9 11 5 6 1028.5 1028.2 0.0
21/04:30am 5.6 1.3 1.2 73 1.8 E 13 17 7 9 1028.5 1028.2 0.0
21/04:00am 6.4 1.8 1.3 70 2.1 E 15 22 8 12 1028.5 1028.2 0.0
21/03:30am 6.6 1.6 1.3 69 2.2 E 17 20 9 11 1028.6 1028.3 0.0
21/03:00am 6.4 1.8 1.3 70 2.1 E 15 19 8 10 1028.8 1028.5 0.0
21/02:30am 6.7 1.7 1.2 68 2.2 E 17 20 9 11 1028.7 1028.4 0.0
21/02:00am 6.9 1.9 1.4 68 2.2 E 17 20 9 11 1028.9 1028.6 0.0
21/01:30am 6.8 1.8 1.3 68 2.3 E 17 20 9 11 1028.9 1028.6 0.0
21/01:00am 6.9 2.7 1.6 69 2.2 E 13 17 7 9 1029.0 1028.7 0.0
21/12:30am 7.2 3.0 1.7 68 2.3 ESE 13 17 7 9 1029.0 1028.7 0.0
21/12:00am 7.3 3.1 1.6 67 2.3 E 13 19 7 10 1029.2 1028.9 0.0
 
Date/Time
WST
Temp
°C
App
Temp
°C
Dew
Point
Rel
Hum
%
Delta-T
°C
Wind Press
QNH
hPa
Press
MSL
hPa
Rain
since 9 am
mm
Dir
 
Spd
km/h
Gust
km/h
Spd
kts
Gust
kts
20/11:30pm 8.0 3.4 1.6 64 2.7 E 15 20 8 11 1029.3 1029.0 0.0
20/11:00pm 8.1 3.5 1.7 64 2.7 E 15 19 8 10 1029.4 1029.1 0.0
20/10:30pm 8.1 3.2 1.9 65 2.6 E 17 22 9 12 1029.5 1029.2 0.0
20/10:00pm 8.2 3.3 2.0 65 2.6 E 17 22 9 12 1029.8 1029.4 0.0
20/09:30pm 8.7 3.8 2.3 64 2.7 E 17 22 9 12 1030.0 1029.6 0.0
20/09:00pm 9.0 4.1 2.3 63 2.8 E 17 22 9 12 1029.9 1029.5 0.0
20/08:30pm 9.3 4.5 2.4 62 3.0 E 17 22 9 12 1029.8 1029.4 0.0
20/08:00pm 9.6 5.2 2.7 62 3.0 E 15 20 8 11 1029.5 1029.2 0.0
20/07:30pm 9.8 5.4 2.6 61 3.1 ESE 15 20 8 11 1029.4 1029.1 0.0
20/07:00pm 10.4 6.0 2.7 59 3.3 ESE 15 20 8 11 1029.3 1029.0 0.0
20/06:30pm 11.0 6.6 2.6 56 3.7 ESE 15 20 8 11 1029.0 1028.7 0.0
20/06:00pm 11.9 7.1 2.6 53 4.1 ESE 17 20 9 11 1028.7 1028.4 0.0
20/05:30pm 12.7 7.8 2.3 49 4.6 ESE 17 22 9 12 1028.2 1027.8 0.0
20/05:00pm 13.7 8.2 2.0 45 5.2 ESE 20 26 11 14 1027.9 1027.5 0.0
20/04:30pm 14.4 9.0 1.3 41 5.8 ESE 19 26 10 14 1027.7 1027.3 0.0
20/04:00pm 14.8 8.8 1.3 40 5.9 ESE 22 30 12 16 1027.6 1027.2 0.0
20/03:30pm 15.0 9.1 1.5 40 6.0 E 22 28 12 15 1027.6 1027.2 0.0
20/03:00pm 15.5 10.0 2.0 40 6.1 E 20 32 11 17 1027.6 1027.2 0.0
20/02:30pm 15.1 9.6 2.0 41 5.9 E 20 32 11 17 1027.5 1027.1 0.0
20/02:00pm 15.1 8.9 2.0 41 5.9 ESE 24 33 13 18 1027.6 1027.2 0.0
20/01:30pm 14.6 8.7 1.5 41 5.8 ESE 22 35 12 19 1027.7 1027.3 0.0
20/01:00pm 14.7 9.6 2.9 45 5.4 ESE 19 28 10 15 1028.0 1027.6 0.0
20/12:30pm 14.0 8.4 3.2 48 4.9 ENE 22 30 12 16 1028.4 1028.1 0.0
20/12:00pm 14.2 9.0 3.4 48 4.9 ESE 20 28 11 15 1029.0 1028.7 0.0
20/11:30am 12.9 6.9 3.3 52 4.4 ESE 24 33 13 18 1029.3 1029.0 0.0
20/11:00am 12.4 7.2 3.4 54 4.0 ESE 20 28 11 15 1029.5 1029.2 0.0
20/10:30am 11.5 6.4 4.3 61 3.3 E 20 32 11 17 1030.0 1029.6 0.0
20/10:00am 10.9 5.5 4.4 64 3.0 E 22 30 12 16 1030.2 1029.8 0.0
20/09:30am 9.8 5.0 4.8 71 2.3 ESE 19 26 10 14 1030.2 1029.8 0.0
20/09:00am 9.0 4.6 5.0 76 1.8 E 17 24 9 13 1030.1 1029.7 0.0
20/08:30am 7.8 3.8 4.9 82 1.3 ESE 15 24 8 13 1030.0 1029.6 0.0
20/08:00am 6.7 3.9 5.2 90 0.7 ESE 9 13 5 7 1029.9 1029.5 0.0

Other Formats:

Comma delimited format used in spreadsheet applications
http://www.bom.gov.au/fwo/IDW60801/IDW60801.95634.axf

JavaScript Object Notation format (JSON) in row-major order
http://www.bom.gov.au/fwo/IDW60801/IDW60801.95634.json